Darstellungsparameter: Aktuell verwendete Einstellungen:
Skalierung der Graphiken ... ?
xyx+y,   Skalierungsfaktor:      Skalierung: Modus: x, Faktor: 1
Darstellungszeitraum ... ?
Vom - - bis: - -   Zeitraum: 29.05.2014 - 30.05.2014
Min/Max/Avg-Anzeige ... ?
Zeige MMA aktuell
Zeige MMA Monat
Zeige MMA alles
Zeige --A aktuell
Zeige --A Monat
Zeige --A alles
Keine MMA-Anzeige
MMA:
Keine MMA-Graphiken
MMA-Basis: 29.05.2014 - 30.05.2014
Quicknavigation für Darstellung... ?
Tage:      1T, 2T, 3T, 5T -1T -2T -3T -5T +1T +2T +3T +5T
Wochen: 1W, 2W, 3W -1W -2W -3W +1W +2W +3W
Monate: 1M, 3M, 6M -1M -3M -6M +1M +3M +6M
Jahre:    1J, 3J, 5J, 10J -1J -3J -5J -10J +1J +3J +5J +10J
Nutze für die Darstellung ... ?
Originaldaten oder Mittelwerte auf ...
Stundenbasis Tagesbasis Wochenbasis
Monatsbasis Jahresbasis      Datenbasis: Original-Daten
Darstellen als:
Statistik (Auto) Statistik J:M      Darstellung:
Zur Graphik,    zurück zur Übersicht aller Sensoren.
 
Tabellarische Datenbersicht: ?
 
Sensor: Nr:Datum:Temp:Abs-Feuchte:Windchill:Wind:
Aussen-T/F 1 29-05-2014 00:00:00 11.4 C 9.65 g/m*3 11.4 C 0 km/h
2 29-05-2014 00:05:00 11.4 C 9.65 g/m*3 11.4 C 0 km/h
3 29-05-2014 00:10:00 11.3 C 9.59 g/m*3 11.3 C 0 km/h
4 29-05-2014 00:15:00 11.2 C 9.53 g/m*3 11.2 C 0 km/h
5 29-05-2014 00:20:00 11.1 C 9.47 g/m*3 11.1 C 0 km/h
6 29-05-2014 00:25:00 11.1 C 9.57 g/m*3 11.1 C 0 km/h
7 29-05-2014 00:30:00 11.1 C 9.57 g/m*3 11.1 C 0 km/h
8 29-05-2014 00:35:00 11.1 C 9.57 g/m*3 11.1 C 0 km/h
9 29-05-2014 00:40:00 11.1 C 9.57 g/m*3 11.1 C 0 km/h
10 29-05-2014 00:45:00 11.1 C 9.57 g/m*3 11.1 C 0 km/h
11 29-05-2014 00:50:00 11.1 C 9.57 g/m*3 11.1 C 0 km/h
12 29-05-2014 00:55:00 11 C 9.51 g/m*3 11 C 0 km/h
13 29-05-2014 01:00:00 10.9 C 9.45 g/m*3 10.9 C 0 km/h
14 29-05-2014 01:05:00 10.9 C 9.45 g/m*3 10.9 C 0 km/h
15 29-05-2014 01:10:00 10.8 C 9.39 g/m*3 10.8 C 0 km/h
16 29-05-2014 01:15:00 10.8 C 9.39 g/m*3 10.8 C 0 km/h
17 29-05-2014 01:20:00 10.7 C 9.33 g/m*3 10.7 C 0 km/h
18 29-05-2014 01:25:00 10.7 C 9.33 g/m*3 10.7 C 1.6 km/h
19 29-05-2014 01:30:00 10.6 C 9.27 g/m*3 10.6 C 0 km/h
20 29-05-2014 01:35:00 10.6 C 9.27 g/m*3 10.6 C 0 km/h
21 29-05-2014 01:40:00 10.5 C 9.21 g/m*3 10.5 C 0 km/h
22 29-05-2014 01:45:00 10.4 C 9.25 g/m*3 10.4 C 0 km/h
23 29-05-2014 01:50:00 10.4 C 9.16 g/m*3 10.4 C 0 km/h
24 29-05-2014 01:55:00 10.3 C 9.19 g/m*3 10.3 C 1.6 km/h
25 29-05-2014 02:00:00 10.3 C 9.19 g/m*3 10.3 C 1.6 km/h
Sensor: Nr:Datum:Temp:Abs-Feuchte:Windchill:Wind:
Aussen-T/F 26 29-05-2014 02:05:00 10.3 C 9.19 g/m*3 10.3 C 0 km/h
27 29-05-2014 02:10:00 10.3 C 9.19 g/m*3 10.3 C 0 km/h
28 29-05-2014 02:15:00 10.2 C 9.14 g/m*3 10.2 C 0 km/h
29 29-05-2014 02:20:00 10.2 C 9.14 g/m*3 10.2 C 0 km/h
30 29-05-2014 02:25:00 10.1 C 9.08 g/m*3 10.1 C 0 km/h
31 29-05-2014 02:30:00 10.2 C 9.14 g/m*3 10.2 C 0 km/h
32 29-05-2014 02:35:00 10.1 C 9.08 g/m*3 10.1 C 0 km/h
33 29-05-2014 02:40:00 10.1 C 9.08 g/m*3 10.1 C 0 km/h
34 29-05-2014 02:45:00 10.1 C 9.08 g/m*3 10.1 C 0 km/h
35 29-05-2014 02:50:00 9.9 C 8.96 g/m*3 9.9 C 0 km/h
36 29-05-2014 02:55:00 9.9 C 8.96 g/m*3 9.9 C 0 km/h
37 29-05-2014 03:00:00 9.9 C 8.96 g/m*3 9.9 C 0 km/h
38 29-05-2014 03:05:00 9.9 C 8.96 g/m*3 9.9 C 0 km/h
39 29-05-2014 03:10:00 9.9 C 8.96 g/m*3 9.9 C 0 km/h
40 29-05-2014 03:15:00 9.9 C 8.96 g/m*3 9.9 C 0 km/h
41 29-05-2014 03:20:00 9.9 C 8.96 g/m*3 9.9 C 0 km/h
42 29-05-2014 03:25:00 9.9 C 8.96 g/m*3 9.9 C 0 km/h
43 29-05-2014 03:30:00 9.9 C 8.96 g/m*3 9.9 C 0 km/h
44 29-05-2014 03:35:00 9.9 C 8.96 g/m*3 9.9 C 0 km/h
45 29-05-2014 03:40:00 9.8 C 8.91 g/m*3 9.8 C 0 km/h
46 29-05-2014 03:45:00 9.8 C 8.91 g/m*3 9.8 C 0 km/h
47 29-05-2014 03:50:00 9.7 C 8.85 g/m*3 9.7 C 0 km/h
48 29-05-2014 03:55:00 9.6 C 8.79 g/m*3 9.6 C 0 km/h
49 29-05-2014 04:00:00 9.6 C 8.79 g/m*3 9.6 C 0 km/h
50 29-05-2014 04:05:00 9.6 C 8.79 g/m*3 9.6 C 0 km/h
Sensor: Nr:Datum:Temp:Abs-Feuchte:Windchill:Wind:
Aussen-T/F 51 29-05-2014 04:10:00 9.5 C 8.74 g/m*3 9.5 C 0 km/h
52 29-05-2014 04:15:00 9.6 C 8.89 g/m*3 9.6 C 0 km/h
53 29-05-2014 04:20:00 9.7 C 8.94 g/m*3 9.7 C 0 km/h
54 29-05-2014 04:25:00 9.8 C 9 g/m*3 9.8 C 0 km/h
55 29-05-2014 04:30:00 9.8 C 9 g/m*3 9.8 C 3.2 km/h
56 29-05-2014 04:35:00 9.9 C 9.06 g/m*3 9.9 C 0 km/h
57 29-05-2014 04:40:00 9.9 C 9.06 g/m*3 9.9 C 4.8 km/h
58 29-05-2014 04:45:00 9.9 C 9.06 g/m*3 9.9 C 0 km/h
59 29-05-2014 04:50:00 9.8 C 8.91 g/m*3 9.8 C 1.6 km/h
60 29-05-2014 04:55:00 9.7 C 8.94 g/m*3 9.7 C 1.6 km/h
61 29-05-2014 05:00:00 9.7 C 8.94 g/m*3 9.7 C 1.6 km/h
62 29-05-2014 05:05:00 9.7 C 8.85 g/m*3 9.7 C 0 km/h
63 29-05-2014 05:10:00 9.6 C 8.79 g/m*3 9.6 C 0 km/h
64 29-05-2014 05:15:00 9.6 C 8.79 g/m*3 9.6 C 1.6 km/h
65 29-05-2014 05:20:00 9.6 C 8.79 g/m*3 9.6 C 0 km/h
66 29-05-2014 05:25:00 9.6 C 8.79 g/m*3 9.6 C 0 km/h
67 29-05-2014 05:30:00 9.4 C 8.68 g/m*3 9.4 C 0 km/h
68 29-05-2014 05:35:00 9.4 C 8.77 g/m*3 9.4 C 0 km/h
69 29-05-2014 05:40:00 9.4 C 8.77 g/m*3 8.28 C 8.1 km/h
70 29-05-2014 05:45:00 9.4 C 8.77 g/m*3 9.4 C 3.2 km/h
71 29-05-2014 05:50:00 9.4 C 8.77 g/m*3 9.4 C 4.8 km/h
72 29-05-2014 05:55:00 9.4 C 8.77 g/m*3 9.4 C 1.6 km/h
73 29-05-2014 06:00:00 9.5 C 8.83 g/m*3 9.5 C 4.8 km/h
74 29-05-2014 06:05:00 9.5 C 8.83 g/m*3 9.5 C 4.8 km/h
75 29-05-2014 06:10:00 9.4 C 8.77 g/m*3 9.4 C 0 km/h
Sensor: Nr:Datum:Temp:Abs-Feuchte:Windchill:Wind:
Aussen-T/F 76 29-05-2014 06:15:00 9.4 C 8.77 g/m*3 9.4 C 3.2 km/h
77 29-05-2014 06:20:00 9.4 C 8.77 g/m*3 9.4 C 4.8 km/h
78 29-05-2014 06:25:00 9.5 C 8.83 g/m*3 8.09 C 9.7 km/h
79 29-05-2014 06:30:00 9.5 C 8.83 g/m*3 9.5 C 1.6 km/h
80 29-05-2014 06:35:00 9.6 C 8.89 g/m*3 9.6 C 3.2 km/h
81 29-05-2014 06:40:00 9.6 C 8.89 g/m*3 9.6 C 4.8 km/h
82 29-05-2014 06:45:00 9.6 C 8.89 g/m*3 9.6 C 4.8 km/h
83 29-05-2014 06:50:00 9.6 C 8.89 g/m*3 9.6 C 3.2 km/h
84 29-05-2014 06:55:00 9.7 C 8.94 g/m*3 9.7 C 3.2 km/h
85 29-05-2014 07:00:00 9.6 C 8.89 g/m*3 9.6 C 4.8 km/h
86 29-05-2014 07:05:00 9.7 C 8.94 g/m*3 9.7 C 4.8 km/h
87 29-05-2014 07:10:00 9.7 C 8.94 g/m*3 9.7 C 3.2 km/h
88 29-05-2014 07:15:00 9.7 C 8.94 g/m*3 9.02 C 6.4 km/h
89 29-05-2014 07:20:00 9.7 C 8.94 g/m*3 9.02 C 6.4 km/h
90 29-05-2014 07:25:00 9.7 C 8.94 g/m*3 9.02 C 6.4 km/h
91 29-05-2014 07:30:00 9.7 C 8.94 g/m*3 9.02 C 6.4 km/h
92 29-05-2014 07:35:00 9.7 C 8.94 g/m*3 8.33 C 9.7 km/h
93 29-05-2014 07:40:00 9.7 C 8.94 g/m*3 9.02 C 6.4 km/h
94 29-05-2014 07:45:00 9.8 C 9 g/m*3 9.14 C 6.4 km/h
95 29-05-2014 07:50:00 9.8 C 9 g/m*3 8.75 C 8.1 km/h
96 29-05-2014 07:55:00 9.9 C 9.06 g/m*3 8.87 C 8.1 km/h
97 29-05-2014 08:00:00 9.9 C 9.06 g/m*3 9.9 C 3.2 km/h
98 29-05-2014 08:05:00 10.1 C 9.17 g/m*3 10.1 C 0 km/h
99 29-05-2014 08:10:00 10.1 C 9.17 g/m*3 10.1 C 4.8 km/h
100 29-05-2014 08:15:00 10.1 C 9.17 g/m*3 10.1 C 4.8 km/h
Sensor: Nr:Datum:Temp:Abs-Feuchte:Windchill:Wind:
Aussen-T/F 101 29-05-2014 08:20:00 10.3 C 9.29 g/m*3 10.3 C 4.8 km/h
102 29-05-2014 08:25:00 10.4 C 9.35 g/m*3 10.4 C 4.8 km/h
103 29-05-2014 08:30:00 10.4 C 9.35 g/m*3 10.4 C 4.8 km/h
104 29-05-2014 08:35:00 10.6 C 9.47 g/m*3 10.6 C 3.2 km/h
105 29-05-2014 08:40:00 10.7 C 9.53 g/m*3 10.7 C 3.2 km/h
106 29-05-2014 08:45:00 10.8 C 9.59 g/m*3 10.8 C 4.8 km/h
107 29-05-2014 08:50:00 10.9 C 9.55 g/m*3 10.9 C 4.8 km/h
108 29-05-2014 08:55:00 10.9 C 9.55 g/m*3 10.9 C 4.8 km/h
109 29-05-2014 09:00:00 11.1 C 9.67 g/m*3 11.1 C 3.2 km/h
110 29-05-2014 09:05:00 11.2 C 9.73 g/m*3 11.2 C 3.2 km/h
111 29-05-2014 09:10:00 11.2 C 9.73 g/m*3 11.2 C 4.8 km/h
112 29-05-2014 09:15:00 11.3 C 9.69 g/m*3 11.3 C 3.2 km/h
113 29-05-2014 09:20:00 11.5 C 9.81 g/m*3 11.5 C 1.6 km/h
114 29-05-2014 09:25:00 11.7 C 9.94 g/m*3 11.7 C 3.2 km/h
115 29-05-2014 09:30:00 11.8 C 10 g/m*3 11.8 C 1.6 km/h
116 29-05-2014 09:35:00 12.1 C 10.08 g/m*3 12.1 C 3.2 km/h
117 29-05-2014 09:40:00 12.2 C 10.14 g/m*3 12.2 C 3.2 km/h
118 29-05-2014 09:45:00 12.3 C 10.1 g/m*3 12.3 C 3.2 km/h
119 29-05-2014 09:50:00 12.6 C 10.29 g/m*3 12.6 C 3.2 km/h
120 29-05-2014 09:55:00 12.8 C 10.42 g/m*3 12.8 C 4.8 km/h
121 29-05-2014 10:00:00 12.9 C 10.48 g/m*3 12.9 C 3.2 km/h
122 29-05-2014 10:05:00 13.2 C 10.56 g/m*3 13.2 C 1.6 km/h
123 29-05-2014 10:10:00 13.3 C 10.51 g/m*3 13.3 C 0 km/h
124 29-05-2014 10:15:00 13.4 C 10.58 g/m*3 13.4 C 1.6 km/h
125 29-05-2014 10:20:00 13.6 C 10.71 g/m*3 13.6 C 1.6 km/h
Sensor: Nr:Datum:Temp:Abs-Feuchte:Windchill:Wind:
Aussen-T/F 126 29-05-2014 10:25:00 13.8 C 10.84 g/m*3 13.8 C 3.2 km/h
127 29-05-2014 10:30:00 14.1 C 10.92 g/m*3 14.1 C 0 km/h
128 29-05-2014 10:35:00 14.2 C 10.99 g/m*3 14.2 C 0 km/h
129 29-05-2014 10:40:00 14.5 C 11.07 g/m*3 14.5 C 0 km/h
130 29-05-2014 10:45:00 14.7 C 11.21 g/m*3 14.7 C 3.2 km/h
131 29-05-2014 10:50:00 14.9 C 11.22 g/m*3 14.9 C 1.6 km/h
132 29-05-2014 10:55:00 15.1 C 11.22 g/m*3 15.1 C 3.2 km/h
133 29-05-2014 11:00:00 15.2 C 11.29 g/m*3 15.2 C 1.6 km/h
134 29-05-2014 11:05:00 15.2 C 11.03 g/m*3 15.2 C 0 km/h
135 29-05-2014 11:10:00 15.3 C 11.1 g/m*3 15.3 C 3.2 km/h
136 29-05-2014 11:15:00 15.4 C 11.04 g/m*3 15.4 C 4.8 km/h
137 29-05-2014 11:20:00 15.6 C 11.17 g/m*3 15.6 C 3.2 km/h
138 29-05-2014 11:25:00 15.7 C 11.11 g/m*3 15.7 C 1.6 km/h
139 29-05-2014 11:30:00 15.9 C 11.51 g/m*3 15.9 C 3.2 km/h
140 29-05-2014 11:35:00 16.2 C 11.72 g/m*3 16.2 C 0 km/h
141 29-05-2014 11:40:00 16.3 C 11.52 g/m*3 16.3 C 3.2 km/h
142 29-05-2014 11:45:00 16.4 C 11.31 g/m*3 16.4 C 0 km/h
143 29-05-2014 11:50:00 16.6 C 11.44 g/m*3 16.6 C 0 km/h
144 29-05-2014 11:55:00 16.7 C 11.51 g/m*3 16.7 C 6.4 km/h
145 29-05-2014 12:00:00 16.9 C 11.36 g/m*3 16.9 C 6.4 km/h
146 29-05-2014 12:05:00 17.1 C 11.5 g/m*3 17.1 C 0 km/h
147 29-05-2014 12:10:00 17.2 C 11.72 g/m*3 17.2 C 1.6 km/h
148 29-05-2014 12:15:00 17.3 C 11.49 g/m*3 17.3 C 8.1 km/h
149 29-05-2014 12:20:00 17.5 C 11.78 g/m*3 17.5 C 4.8 km/h
150 29-05-2014 12:25:00 17.5 C 11.33 g/m*3 17.5 C 4.8 km/h
Sensor: Nr:Datum:Temp:Abs-Feuchte:Windchill:Wind:
Aussen-T/F 151 29-05-2014 12:30:00 17.8 C 11.69 g/m*3 17.8 C 1.6 km/h
152 29-05-2014 12:35:00 17.8 C 11.38 g/m*3 17.8 C 4.8 km/h
153 29-05-2014 12:40:00 17.8 C 11.23 g/m*3 17.8 C 4.8 km/h
154 29-05-2014 12:45:00 17.7 C 11.01 g/m*3 17.7 C 4.8 km/h
155 29-05-2014 12:50:00 17.7 C 11.01 g/m*3 17.7 C 9.7 km/h
156 29-05-2014 12:55:00 17.8 C 11.54 g/m*3 17.8 C 6.4 km/h
157 29-05-2014 13:00:00 17.9 C 11.45 g/m*3 17.9 C 8.1 km/h
158 29-05-2014 13:05:00 18.2 C 11.35 g/m*3 18.2 C 9.7 km/h
159 29-05-2014 13:10:00 18.4 C 11.17 g/m*3 18.4 C 8.1 km/h
160 29-05-2014 13:15:00 18.7 C 11.21 g/m*3 18.7 C 6.4 km/h
161 29-05-2014 13:20:00 18.9 C 11.02 g/m*3 18.9 C 8.1 km/h
162 29-05-2014 13:25:00 19.1 C 11.31 g/m*3 19.1 C 8.1 km/h
163 29-05-2014 13:30:00 19.3 C 11.61 g/m*3 19.3 C 8.1 km/h
164 29-05-2014 13:35:00 19.4 C 11.35 g/m*3 19.4 C 9.7 km/h
165 29-05-2014 13:40:00 19.2 C 11.38 g/m*3 19.2 C 11.3 km/h
166 29-05-2014 13:45:00 19.1 C 11.31 g/m*3 19.1 C 9.7 km/h
167 29-05-2014 13:50:00 19.1 C 11.31 g/m*3 19.1 C 11.3 km/h
168 29-05-2014 13:55:00 19.1 C 11.31 g/m*3 19.1 C 11.3 km/h
169 29-05-2014 14:00:00 19.2 C 11.38 g/m*3 19.2 C 9.7 km/h
170 29-05-2014 14:05:00 19.2 C 11.05 g/m*3 19.2 C 9.7 km/h
171 29-05-2014 14:10:00 19.1 C 11.15 g/m*3 19.1 C 4.8 km/h
172 29-05-2014 14:15:00 19 C 11.08 g/m*3 19 C 8.1 km/h
173 29-05-2014 14:20:00 18.9 C 11.18 g/m*3 18.9 C 8.1 km/h
174 29-05-2014 14:25:00 18.8 C 10.95 g/m*3 18.8 C 11.3 km/h
175 29-05-2014 14:30:00 18.8 C 11.11 g/m*3 18.8 C 11.3 km/h
Sensor: Nr:Datum:Temp:Abs-Feuchte:Windchill:Wind:
Aussen-T/F 176 29-05-2014 14:35:00 18.8 C 11.11 g/m*3 18.8 C 12.9 km/h
177 29-05-2014 14:40:00 18.7 C 11.05 g/m*3 18.7 C 12.9 km/h
178 29-05-2014 14:45:00 18.5 C 11.23 g/m*3 18.5 C 6.4 km/h
179 29-05-2014 14:50:00 18.4 C 11.17 g/m*3 18.4 C 9.7 km/h
180 29-05-2014 14:55:00 18.4 C 11.17 g/m*3 18.4 C 11.3 km/h
181 29-05-2014 15:00:00 18.3 C 11.26 g/m*3 18.3 C 9.7 km/h
182 29-05-2014 15:05:00 18.2 C 11.19 g/m*3 18.2 C 8.1 km/h
183 29-05-2014 15:10:00 18.2 C 11.19 g/m*3 18.2 C 11.3 km/h
184 29-05-2014 15:15:00 18.2 C 11.35 g/m*3 18.2 C 11.3 km/h
185 29-05-2014 15:20:00 18.2 C 11.04 g/m*3 18.2 C 9.7 km/h
186 29-05-2014 15:25:00 18.1 C 10.97 g/m*3 18.1 C 11.3 km/h
187 29-05-2014 15:30:00 18.1 C 10.97 g/m*3 18.1 C 9.7 km/h
188 29-05-2014 15:35:00 17.9 C 10.69 g/m*3 17.9 C 14.5 km/h
189 29-05-2014 15:40:00 17.7 C 10.71 g/m*3 17.7 C 9.7 km/h
190 29-05-2014 15:45:00 17.5 C 10.73 g/m*3 17.5 C 8.1 km/h
191 29-05-2014 15:50:00 17.3 C 10.61 g/m*3 17.3 C 6.4 km/h
192 29-05-2014 15:55:00 17.2 C 10.54 g/m*3 17.2 C 8.1 km/h
193 29-05-2014 16:00:00 17.1 C 10.63 g/m*3 17.1 C 8.1 km/h
194 29-05-2014 16:05:00 17.1 C 10.63 g/m*3 17.1 C 6.4 km/h
195 29-05-2014 16:10:00 17 C 10.56 g/m*3 17 C 6.4 km/h
196 29-05-2014 16:15:00 17 C 10.85 g/m*3 17 C 8.1 km/h
197 29-05-2014 16:20:00 16.9 C 10.79 g/m*3 16.9 C 8.1 km/h
198 29-05-2014 16:25:00 16.9 C 10.79 g/m*3 16.9 C 8.1 km/h
199 29-05-2014 16:30:00 16.9 C 10.64 g/m*3 16.9 C 8.1 km/h
200 29-05-2014 16:35:00 16.8 C 10.58 g/m*3 16.8 C 12.9 km/h
Sensor: Nr:Datum:Temp:Abs-Feuchte:Windchill:Wind:
Aussen-T/F 201 29-05-2014 16:40:00 16.7 C 10.52 g/m*3 16.7 C 9.7 km/h
202 29-05-2014 16:45:00 16.7 C 10.66 g/m*3 16.7 C 8.1 km/h
203 29-05-2014 16:50:00 16.7 C 10.66 g/m*3 16.7 C 8.1 km/h
204 29-05-2014 16:55:00 16.7 C 10.8 g/m*3 16.7 C 8.1 km/h
205 29-05-2014 17:00:00 16.7 C 10.8 g/m*3 16.7 C 8.1 km/h
206 29-05-2014 17:05:00 16.6 C 10.74 g/m*3 16.6 C 8.1 km/h
207 29-05-2014 17:10:00 16.6 C 10.74 g/m*3 16.6 C 6.4 km/h
208 29-05-2014 17:15:00 16.5 C 10.53 g/m*3 16.5 C 9.7 km/h
209 29-05-2014 17:20:00 16.5 C 10.67 g/m*3 16.5 C 8.1 km/h
210 29-05-2014 17:25:00 16.4 C 10.47 g/m*3 16.4 C 9.7 km/h
211 29-05-2014 17:30:00 16.4 C 10.61 g/m*3 16.4 C 9.7 km/h
212 29-05-2014 17:35:00 16.3 C 10.68 g/m*3 16.3 C 9.7 km/h
213 29-05-2014 17:40:00 16.3 C 10.82 g/m*3 16.3 C 9.7 km/h
214 29-05-2014 17:45:00 16.3 C 10.68 g/m*3 16.3 C 9.7 km/h
215 29-05-2014 17:50:00 16.2 C 10.62 g/m*3 16.2 C 8.1 km/h
216 29-05-2014 17:55:00 16.1 C 10.55 g/m*3 16.1 C 6.4 km/h
217 29-05-2014 18:00:00 16 C 10.63 g/m*3 16 C 6.4 km/h
218 29-05-2014 18:05:00 15.9 C 10.7 g/m*3 15.9 C 8.1 km/h
219 29-05-2014 18:10:00 15.9 C 10.56 g/m*3 15.9 C 9.7 km/h
220 29-05-2014 18:15:00 15.8 C 10.5 g/m*3 15.8 C 4.8 km/h
221 29-05-2014 18:20:00 15.7 C 10.57 g/m*3 15.7 C 6.4 km/h
222 29-05-2014 18:25:00 15.7 C 10.57 g/m*3 15.7 C 8.1 km/h
223 29-05-2014 18:30:00 15.6 C 10.51 g/m*3 15.6 C 8.1 km/h
224 29-05-2014 18:35:00 15.6 C 10.64 g/m*3 15.6 C 4.8 km/h
225 29-05-2014 18:40:00 15.6 C 10.91 g/m*3 15.6 C 4.8 km/h
Sensor: Nr:Datum:Temp:Abs-Feuchte:Windchill:Wind:
Aussen-T/F 226 29-05-2014 18:45:00 15.4 C 10.77 g/m*3 15.4 C 6.4 km/h
227 29-05-2014 18:50:00 15.3 C 10.84 g/m*3 15.3 C 4.8 km/h
228 29-05-2014 18:55:00 15.3 C 10.97 g/m*3 15.3 C 3.2 km/h
229 29-05-2014 19:00:00 15.2 C 11.16 g/m*3 15.2 C 3.2 km/h
230 29-05-2014 19:05:00 15.1 C 10.84 g/m*3 15.1 C 4.8 km/h
231 29-05-2014 19:10:00 14.9 C 10.58 g/m*3 14.9 C 6.4 km/h
232 29-05-2014 19:15:00 14.8 C 10.77 g/m*3 14.8 C 3.2 km/h
233 29-05-2014 19:20:00 14.8 C 10.77 g/m*3 14.8 C 4.8 km/h
234 29-05-2014 19:25:00 14.8 C 10.89 g/m*3 14.8 C 0 km/h
235 29-05-2014 19:30:00 14.8 C 11.02 g/m*3 14.8 C 0 km/h
236 29-05-2014 19:35:00 14.8 C 10.77 g/m*3 14.8 C 4.8 km/h
237 29-05-2014 19:40:00 14.8 C 10.77 g/m*3 14.8 C 3.2 km/h
238 29-05-2014 19:45:00 14.7 C 10.7 g/m*3 14.7 C 3.2 km/h
239 29-05-2014 19:50:00 14.8 C 10.89 g/m*3 14.8 C 3.2 km/h
240 29-05-2014 19:55:00 14.7 C 10.7 g/m*3 14.7 C 4.8 km/h
241 29-05-2014 20:00:00 14.7 C 10.7 g/m*3 14.7 C 4.8 km/h
242 29-05-2014 20:05:00 14.7 C 10.7 g/m*3 14.7 C 4.8 km/h
243 29-05-2014 20:10:00 14.6 C 10.64 g/m*3 14.6 C 4.8 km/h
244 29-05-2014 20:15:00 14.6 C 10.64 g/m*3 14.6 C 4.8 km/h
245 29-05-2014 20:20:00 14.6 C 10.76 g/m*3 14.6 C 0 km/h
246 29-05-2014 20:25:00 14.5 C 10.82 g/m*3 14.5 C 0 km/h
247 29-05-2014 20:30:00 14.4 C 10.88 g/m*3 14.4 C 0 km/h
248 29-05-2014 20:35:00 14.3 C 10.93 g/m*3 14.3 C 0 km/h
249 29-05-2014 20:40:00 14.2 C 10.87 g/m*3 14.2 C 0 km/h
250 29-05-2014 20:45:00 14.1 C 10.92 g/m*3 14.1 C 1.6 km/h
Sensor: Nr:Datum:Temp:Abs-Feuchte:Windchill:Wind:
Aussen-T/F 251 29-05-2014 20:50:00 13.9 C 10.79 g/m*3 13.9 C 3.2 km/h
252 29-05-2014 20:55:00 13.9 C 10.91 g/m*3 13.9 C 0 km/h
253 29-05-2014 21:00:00 13.8 C 10.84 g/m*3 13.8 C 0 km/h
254 29-05-2014 21:05:00 13.8 C 10.84 g/m*3 13.8 C 0 km/h
255 29-05-2014 21:10:00 13.8 C 10.96 g/m*3 13.8 C 0 km/h
256 29-05-2014 21:15:00 13.7 C 10.89 g/m*3 13.7 C 0 km/h
257 29-05-2014 21:20:00 13.7 C 10.89 g/m*3 13.7 C 0 km/h
258 29-05-2014 21:25:00 13.7 C 10.89 g/m*3 13.7 C 1.6 km/h
259 29-05-2014 21:30:00 13.7 C 10.89 g/m*3 13.7 C 0 km/h
260 29-05-2014 21:35:00 13.7 C 10.89 g/m*3 13.7 C 0 km/h
261 29-05-2014 21:40:00 13.6 C 10.95 g/m*3 13.6 C 0 km/h
262 29-05-2014 21:45:00 13.6 C 10.95 g/m*3 13.6 C 0 km/h
263 29-05-2014 21:50:00 13.6 C 10.95 g/m*3 13.6 C 0 km/h
264 29-05-2014 21:55:00 13.5 C 10.88 g/m*3 13.5 C 0 km/h
265 29-05-2014 22:00:00 13.5 C 10.76 g/m*3 13.5 C 9.7 km/h
266 29-05-2014 22:05:00 13.4 C 10.46 g/m*3 13.4 C 3.2 km/h
267 29-05-2014 22:10:00 13.3 C 10.28 g/m*3 13.3 C 8.1 km/h
268 29-05-2014 22:15:00 13.3 C 10.17 g/m*3 13.3 C 11.3 km/h
269 29-05-2014 22:20:00 13.2 C 10.1 g/m*3 13.2 C 8.1 km/h
270 29-05-2014 22:25:00 13.1 C 9.93 g/m*3 13.1 C 4.8 km/h
271 29-05-2014 22:30:00 13 C 9.87 g/m*3 13 C 8.1 km/h
272 29-05-2014 22:35:00 12.9 C 9.81 g/m*3 12.9 C 8.1 km/h
273 29-05-2014 22:40:00 12.8 C 9.63 g/m*3 12.8 C 6.4 km/h
274 29-05-2014 22:45:00 12.8 C 9.63 g/m*3 12.8 C 1.6 km/h
275 29-05-2014 22:50:00 12.7 C 9.57 g/m*3 12.7 C 6.4 km/h
Sensor: Nr:Datum:Temp:Abs-Feuchte:Windchill:Wind:
Aussen-T/F 276 29-05-2014 22:55:00 12.6 C 9.4 g/m*3 12.6 C 4.8 km/h
277 29-05-2014 23:00:00 12.6 C 9.51 g/m*3 12.6 C 11.3 km/h
278 29-05-2014 23:05:00 12.5 C 9.35 g/m*3 12.5 C 12.9 km/h
279 29-05-2014 23:10:00 12.4 C 9.4 g/m*3 12.4 C 8.1 km/h
280 29-05-2014 23:15:00 12.4 C 9.4 g/m*3 12.4 C 6.4 km/h
281 29-05-2014 23:20:00 12.4 C 9.4 g/m*3 12.4 C 4.8 km/h
282 29-05-2014 23:25:00 12.3 C 9.34 g/m*3 12.3 C 4.8 km/h
283 29-05-2014 23:30:00 12.3 C 9.34 g/m*3 12.3 C 4.8 km/h
284 29-05-2014 23:35:00 12.3 C 9.34 g/m*3 12.3 C 8.1 km/h
285 29-05-2014 23:40:00 12.3 C 9.34 g/m*3 12.3 C 11.3 km/h
286 29-05-2014 23:45:00 12.3 C 9.34 g/m*3 12.3 C 4.8 km/h
287 29-05-2014 23:50:00 12.2 C 9.28 g/m*3 12.2 C 4.8 km/h
288 29-05-2014 23:55:00 12.1 C 9.22 g/m*3 12.1 C 6.4 km/h
289 30-05-2014 00:00:00 12.1 C 9.22 g/m*3 12.1 C 8.1 km/h
290 30-05-2014 00:05:00 12.1 C 9.22 g/m*3 12.1 C 4.8 km/h
291 30-05-2014 00:10:00 12 C 9.06 g/m*3 12 C 6.4 km/h
292 30-05-2014 00:15:00 11.9 C 9 g/m*3 11.9 C 6.4 km/h
293 30-05-2014 00:20:00 11.9 C 9 g/m*3 11.9 C 8.1 km/h
294 30-05-2014 00:25:00 11.9 C 9 g/m*3 11.9 C 8.1 km/h
295 30-05-2014 00:30:00 11.8 C 8.95 g/m*3 11.8 C 8.1 km/h
296 30-05-2014 00:35:00 11.8 C 8.95 g/m*3 11.8 C 3.2 km/h
297 30-05-2014 00:40:00 11.8 C 8.95 g/m*3 11.8 C 4.8 km/h
298 30-05-2014 00:45:00 11.7 C 8.89 g/m*3 11.7 C 9.7 km/h
299 30-05-2014 00:50:00 11.7 C 8.89 g/m*3 11.7 C 9.7 km/h
300 30-05-2014 00:55:00 11.6 C 8.94 g/m*3 11.6 C 4.8 km/h
Sensor: Nr:Datum:Temp:Abs-Feuchte:Windchill:Wind:
Aussen-T/F 301 30-05-2014 01:00:00 11.6 C 8.94 g/m*3 11.6 C 6.4 km/h
302 30-05-2014 01:05:00 11.5 C 8.88 g/m*3 11.5 C 8.1 km/h
303 30-05-2014 01:10:00 11.5 C 8.88 g/m*3 11.5 C 6.4 km/h
304 30-05-2014 01:15:00 11.4 C 8.72 g/m*3 11.4 C 8.1 km/h
305 30-05-2014 01:20:00 11.4 C 8.72 g/m*3 11.4 C 8.1 km/h
306 30-05-2014 01:25:00 11.3 C 8.57 g/m*3 11.3 C 8.1 km/h
307 30-05-2014 01:30:00 11.3 C 8.57 g/m*3 11.3 C 4.8 km/h
308 30-05-2014 01:35:00 11.2 C 8.51 g/m*3 11.2 C 9.7 km/h
309 30-05-2014 01:40:00 11.2 C 8.51 g/m*3 11.2 C 6.4 km/h
310 30-05-2014 01:45:00 11.2 C 8.51 g/m*3 11.2 C 6.4 km/h
311 30-05-2014 01:50:00 11.2 C 8.41 g/m*3 11.2 C 14.5 km/h
312 30-05-2014 01:55:00 11.1 C 8.36 g/m*3 11.1 C 12.9 km/h
313 30-05-2014 02:00:00 11.1 C 8.46 g/m*3 11.1 C 3.2 km/h
314 30-05-2014 02:05:00 11.1 C 8.36 g/m*3 11.1 C 4.8 km/h
315 30-05-2014 02:10:00 11.1 C 8.36 g/m*3 11.1 C 3.2 km/h
316 30-05-2014 02:15:00 11.1 C 8.36 g/m*3 11.1 C 3.2 km/h
317 30-05-2014 02:20:00 11.1 C 8.46 g/m*3 11.1 C 1.6 km/h
318 30-05-2014 02:25:00 11.1 C 8.46 g/m*3 11.1 C 4.8 km/h
319 30-05-2014 02:30:00 11.1 C 8.46 g/m*3 11.1 C 3.2 km/h
320 30-05-2014 02:35:00 11.1 C 8.56 g/m*3 11.1 C 1.6 km/h
321 30-05-2014 02:40:00 11.1 C 8.56 g/m*3 11.1 C 3.2 km/h
322 30-05-2014 02:45:00 11.1 C 8.56 g/m*3 11.1 C 1.6 km/h
323 30-05-2014 02:50:00 11.1 C 8.56 g/m*3 11.1 C 1.6 km/h
324 30-05-2014 02:55:00 11.1 C 8.56 g/m*3 11.1 C 6.4 km/h
325 30-05-2014 03:00:00 11.1 C 8.56 g/m*3 11.1 C 0 km/h
Sensor: Nr:Datum:Temp:Abs-Feuchte:Windchill:Wind:
Aussen-T/F 326 30-05-2014 03:05:00 11 C 8.51 g/m*3 11 C 3.2 km/h
327 30-05-2014 03:10:00 10.9 C 8.26 g/m*3 10.41 C 6.4 km/h
328 30-05-2014 03:15:00 10.9 C 8.26 g/m*3 10.9 C 3.2 km/h
329 30-05-2014 03:20:00 10.9 C 8.26 g/m*3 10.9 C 3.2 km/h
330 30-05-2014 03:25:00 10.9 C 8.26 g/m*3 10.9 C 3.2 km/h
331 30-05-2014 03:30:00 10.9 C 8.36 g/m*3 10.9 C 1.6 km/h
332 30-05-2014 03:35:00 10.9 C 8.26 g/m*3 10.9 C 4.8 km/h
333 30-05-2014 03:40:00 10.9 C 8.26 g/m*3 10.9 C 3.2 km/h
334 30-05-2014 03:45:00 10.8 C 8.2 g/m*3 10.8 C 3.2 km/h
335 30-05-2014 03:50:00 10.8 C 8.2 g/m*3 10.8 C 4.8 km/h
336 30-05-2014 03:55:00 10.8 C 8.2 g/m*3 10.8 C 3.2 km/h
337 30-05-2014 04:00:00 10.8 C 8.11 g/m*3 10.8 C 1.6 km/h
338 30-05-2014 04:05:00 10.8 C 8.2 g/m*3 10.8 C 4.8 km/h
339 30-05-2014 04:10:00 10.7 C 8.05 g/m*3 10.7 C 1.6 km/h
340 30-05-2014 04:15:00 10.7 C 8.05 g/m*3 10.7 C 0 km/h
341 30-05-2014 04:20:00 10.7 C 8.15 g/m*3 10.7 C 0 km/h
342 30-05-2014 04:25:00 10.7 C 8.15 g/m*3 10.7 C 0 km/h
343 30-05-2014 04:30:00 10.7 C 8.25 g/m*3 10.7 C 0 km/h
344 30-05-2014 04:35:00 10.7 C 8.15 g/m*3 10.7 C 4.8 km/h
345 30-05-2014 04:40:00 10.6 C 8 g/m*3 10.6 C 4.8 km/h
346 30-05-2014 04:45:00 10.6 C 8.1 g/m*3 10.6 C 1.6 km/h
347 30-05-2014 04:50:00 10.6 C 8 g/m*3 10.6 C 3.2 km/h
348 30-05-2014 04:55:00 10.6 C 8 g/m*3 10.6 C 3.2 km/h
349 30-05-2014 05:00:00 10.6 C 8.1 g/m*3 10.6 C 0 km/h
350 30-05-2014 05:05:00 10.6 C 8 g/m*3 10.6 C 3.2 km/h
Sensor: Nr:Datum:Temp:Abs-Feuchte:Windchill:Wind:
Aussen-T/F 351 30-05-2014 05:10:00 10.6 C 8.1 g/m*3 10.6 C 0 km/h
352 30-05-2014 05:15:00 10.6 C 8.2 g/m*3 10.6 C 1.6 km/h
353 30-05-2014 05:20:00 10.5 C 8.15 g/m*3 10.5 C 0 km/h
354 30-05-2014 05:25:00 10.4 C 8.1 g/m*3 10.4 C 0 km/h
355 30-05-2014 05:30:00 10.4 C 8 g/m*3 10.4 C 1.6 km/h
356 30-05-2014 05:35:00 10.4 C 8.1 g/m*3 10.4 C 0 km/h
357 30-05-2014 05:40:00 10.4 C 7.9 g/m*3 10.4 C 3.2 km/h
358 30-05-2014 05:45:00 10.3 C 7.95 g/m*3 10.3 C 0 km/h
359 30-05-2014 05:50:00 10.3 C 8.04 g/m*3 10.3 C 0 km/h
360 30-05-2014 05:55:00 10.3 C 7.95 g/m*3 10.3 C 1.6 km/h
361 30-05-2014 06:00:00 10.3 C 7.95 g/m*3 10.3 C 1.6 km/h
362 30-05-2014 06:05:00 10.3 C 7.95 g/m*3 10.3 C 0 km/h
363 30-05-2014 06:10:00 10.3 C 7.95 g/m*3 10.3 C 1.6 km/h
364 30-05-2014 06:15:00 10.3 C 7.95 g/m*3 10.3 C 3.2 km/h
365 30-05-2014 06:20:00 10.3 C 7.95 g/m*3 10.3 C 3.2 km/h
366 30-05-2014 06:25:00 10.3 C 7.85 g/m*3 10.3 C 3.2 km/h
367 30-05-2014 06:30:00 10.4 C 7.9 g/m*3 10.4 C 3.2 km/h
368 30-05-2014 06:35:00 10.4 C 7.9 g/m*3 10.4 C 4.8 km/h
369 30-05-2014 06:40:00 10.4 C 7.81 g/m*3 10.4 C 4.8 km/h
370 30-05-2014 06:45:00 10.4 C 7.81 g/m*3 9.83 C 6.4 km/h
371 30-05-2014 06:50:00 10.4 C 7.71 g/m*3 9.83 C 6.4 km/h
372 30-05-2014 06:55:00 10.5 C 7.76 g/m*3 10.5 C 3.2 km/h
373 30-05-2014 07:00:00 10.5 C 7.76 g/m*3 10.5 C 1.6 km/h
374 30-05-2014 07:05:00 10.5 C 7.86 g/m*3 10.5 C 1.6 km/h
375 30-05-2014 07:10:00 10.6 C 7.81 g/m*3 10.6 C 1.6 km/h
Sensor: Nr:Datum:Temp:Abs-Feuchte:Windchill:Wind:
Aussen-T/F 376 30-05-2014 07:15:00 10.6 C 7.71 g/m*3 10.6 C 3.2 km/h
377 30-05-2014 07:20:00 10.6 C 7.61 g/m*3 10.6 C 4.8 km/h
378 30-05-2014 07:25:00 10.6 C 7.71 g/m*3 10.6 C 1.6 km/h
379 30-05-2014 07:30:00 10.7 C 7.66 g/m*3 10.7 C 1.6 km/h
380 30-05-2014 07:35:00 10.7 C 7.66 g/m*3 9.52 C 9.7 km/h
381 30-05-2014 07:40:00 10.8 C 7.61 g/m*3 10.29 C 6.4 km/h
382 30-05-2014 07:45:00 10.8 C 7.61 g/m*3 10.8 C 4.8 km/h
383 30-05-2014 07:50:00 10.9 C 7.66 g/m*3 10.9 C 3.2 km/h
384 30-05-2014 07:55:00 11 C 7.71 g/m*3 10.16 C 8.1 km/h
385 30-05-2014 08:00:00 11.2 C 7.7 g/m*3 11.2 C 4.8 km/h
386 30-05-2014 08:05:00 11.3 C 7.75 g/m*3 11.3 C 4.8 km/h
387 30-05-2014 08:10:00 11.4 C 7.8 g/m*3 11.4 C 4.8 km/h
388 30-05-2014 08:15:00 11.7 C 7.74 g/m*3 11.7 C 6.4 km/h
389 30-05-2014 08:20:00 11.9 C 7.84 g/m*3 11.9 C 9.7 km/h
390 30-05-2014 08:25:00 12 C 7.67 g/m*3 12 C 8.1 km/h
391 30-05-2014 08:30:00 12.1 C 7.72 g/m*3 12.1 C 8.1 km/h
392 30-05-2014 08:35:00 12.1 C 7.61 g/m*3 12.1 C 11.3 km/h
393 30-05-2014 08:40:00 12 C 7.46 g/m*3 12 C 4.8 km/h
394 30-05-2014 08:45:00 12.1 C 7.51 g/m*3 12.1 C 4.8 km/h
395 30-05-2014 08:50:00 12.2 C 7.45 g/m*3 12.2 C 6.4 km/h
396 30-05-2014 08:55:00 12.4 C 7.43 g/m*3 12.4 C 8.1 km/h
397 30-05-2014 09:00:00 12.5 C 7.37 g/m*3 12.5 C 8.1 km/h
398 30-05-2014 09:05:00 12.7 C 7.24 g/m*3 12.7 C 11.3 km/h
399 30-05-2014 09:10:00 12.7 C 7.35 g/m*3 12.7 C 12.9 km/h
400 30-05-2014 09:15:00 12.7 C 7.35 g/m*3 12.7 C 8.1 km/h
Sensor: Nr:Datum:Temp:Abs-Feuchte:Windchill:Wind:
Aussen-T/F 401 30-05-2014 09:20:00 12.7 C 7.46 g/m*3 12.7 C 11.3 km/h
402 30-05-2014 09:25:00 12.6 C 7.3 g/m*3 12.6 C 8.1 km/h
403 30-05-2014 09:30:00 12.5 C 7.26 g/m*3 12.5 C 9.7 km/h
404 30-05-2014 09:35:00 12.4 C 7.21 g/m*3 12.4 C 3.2 km/h
405 30-05-2014 09:40:00 12.3 C 7.38 g/m*3 12.3 C 6.4 km/h
406 30-05-2014 09:45:00 12.3 C 7.38 g/m*3 12.3 C 11.3 km/h
407 30-05-2014 09:50:00 12.5 C 7.37 g/m*3 12.5 C 9.7 km/h
408 30-05-2014 09:55:00 12.7 C 7.46 g/m*3 12.7 C 8.1 km/h
409 30-05-2014 10:00:00 12.9 C 7.44 g/m*3 12.9 C 9.7 km/h
410 30-05-2014 10:05:00 13.3 C 7.63 g/m*3 13.3 C 12.9 km/h
411 30-05-2014 10:10:00 13.7 C 7.82 g/m*3 13.7 C 11.3 km/h
412 30-05-2014 10:15:00 14 C 7.84 g/m*3 14 C 12.9 km/h
413 30-05-2014 10:20:00 14.3 C 7.86 g/m*3 14.3 C 12.9 km/h
414 30-05-2014 10:25:00 14.4 C 7.66 g/m*3 14.4 C 11.3 km/h
415 30-05-2014 10:30:00 14.6 C 8.01 g/m*3 14.6 C 9.7 km/h
416 30-05-2014 10:35:00 14.7 C 8.18 g/m*3 14.7 C 12.9 km/h
417 30-05-2014 10:40:00 14.9 C 8.03 g/m*3 14.9 C 11.3 km/h
418 30-05-2014 10:45:00 15.2 C 8.05 g/m*3 15.2 C 9.7 km/h
419 30-05-2014 10:50:00 15.2 C 8.05 g/m*3 15.2 C 11.3 km/h
420 30-05-2014 10:55:00 14.9 C 7.9 g/m*3 14.9 C 4.8 km/h
421 30-05-2014 11:00:00 14.7 C 7.81 g/m*3 14.7 C 6.4 km/h
422 30-05-2014 11:05:00 14.5 C 7.71 g/m*3 14.5 C 8.1 km/h
423 30-05-2014 11:10:00 14.5 C 8.08 g/m*3 14.5 C 8.1 km/h
424 30-05-2014 11:15:00 14.6 C 8.13 g/m*3 14.6 C 11.3 km/h
425 30-05-2014 11:20:00 14.5 C 7.84 g/m*3 14.5 C 8.1 km/h
Sensor: Nr:Datum:Temp:Abs-Feuchte:Windchill:Wind:
Aussen-T/F 426 30-05-2014 11:25:00 14.6 C 7.88 g/m*3 14.6 C 8.1 km/h
427 30-05-2014 11:30:00 14.6 C 7.76 g/m*3 14.6 C 9.7 km/h
428 30-05-2014 11:35:00 14.4 C 7.42 g/m*3 14.4 C 8.1 km/h
429 30-05-2014 11:40:00 14.3 C 7.74 g/m*3 14.3 C 11.3 km/h
430 30-05-2014 11:45:00 14.6 C 8.13 g/m*3 14.6 C 12.9 km/h
431 30-05-2014 11:50:00 15.2 C 8.31 g/m*3 15.2 C 9.7 km/h
432 30-05-2014 11:55:00 15.7 C 8.3 g/m*3 15.7 C 11.3 km/h
433 30-05-2014 12:00:00 16.1 C 7.81 g/m*3 16.1 C 11.3 km/h
434 30-05-2014 12:05:00 16 C 7.9 g/m*3 16 C 8.1 km/h
435 30-05-2014 12:10:00 15.6 C 7.45 g/m*3 15.6 C 11.3 km/h
436 30-05-2014 12:15:00 15.2 C 7.53 g/m*3 15.2 C 12.9 km/h
437 30-05-2014 12:20:00 15.2 C 7.53 g/m*3 15.2 C 9.7 km/h
438 30-05-2014 12:25:00 15.2 C 7.66 g/m*3 15.2 C 6.4 km/h
439 30-05-2014 12:30:00 15.2 C 7.79 g/m*3 15.2 C 9.7 km/h
440 30-05-2014 12:35:00 15.4 C 7.75 g/m*3 15.4 C 9.7 km/h
441 30-05-2014 12:40:00 15.9 C 8.8 g/m*3 15.9 C 12.9 km/h
442 30-05-2014 12:45:00 16.4 C 8.1 g/m*3 16.4 C 8.1 km/h
443 30-05-2014 12:50:00 16.7 C 7.67 g/m*3 16.7 C 11.3 km/h
444 30-05-2014 12:55:00 16.7 C 7.82 g/m*3 16.7 C 9.7 km/h
445 30-05-2014 13:00:00 16.8 C 8.44 g/m*3 16.8 C 11.3 km/h
446 30-05-2014 13:05:00 16.9 C 7.77 g/m*3 16.9 C 14.5 km/h
447 30-05-2014 13:10:00 17.1 C 8.44 g/m*3 17.1 C 14.5 km/h
448 30-05-2014 13:15:00 17.1 C 9.17 g/m*3 17.1 C 11.3 km/h
449 30-05-2014 13:20:00 17.3 C 7.96 g/m*3 17.3 C 17.7 km/h
450 30-05-2014 13:25:00 17.1 C 8.15 g/m*3 17.1 C 12.9 km/h
Sensor: Nr:Datum:Temp:Abs-Feuchte:Windchill:Wind:
Aussen-T/F 451 30-05-2014 13:30:00 17.1 C 8.3 g/m*3 17.1 C 8.1 km/h
452 30-05-2014 13:35:00 17.1 C 8.15 g/m*3 17.1 C 11.3 km/h
453 30-05-2014 13:40:00 17.2 C 8.64 g/m*3 17.2 C 12.9 km/h
454 30-05-2014 13:45:00 17.1 C 8.01 g/m*3 17.1 C 11.3 km/h
455 30-05-2014 13:50:00 17.3 C 8.54 g/m*3 17.3 C 11.3 km/h
456 30-05-2014 13:55:00 17.3 C 7.81 g/m*3 17.3 C 8.1 km/h
457 30-05-2014 14:00:00 17.6 C 8.7 g/m*3 17.6 C 8.1 km/h
458 30-05-2014 14:05:00 17.8 C 8.04 g/m*3 17.8 C 11.3 km/h
459 30-05-2014 14:10:00 18 C 8.6 g/m*3 18 C 14.5 km/h
460 30-05-2014 14:15:00 17.8 C 8.04 g/m*3 17.8 C 11.3 km/h
461 30-05-2014 14:20:00 17.3 C 7.81 g/m*3 17.3 C 8.1 km/h
462 30-05-2014 14:25:00 17 C 7.67 g/m*3 17 C 8.1 km/h
463 30-05-2014 14:30:00 17.1 C 8.3 g/m*3 17.1 C 9.7 km/h
464 30-05-2014 14:35:00 17.2 C 7.61 g/m*3 17.2 C 6.4 km/h
465 30-05-2014 14:40:00 17.2 C 7.47 g/m*3 17.2 C 14.5 km/h
466 30-05-2014 14:45:00 17.6 C 7.8 g/m*3 17.6 C 12.9 km/h
467 30-05-2014 14:50:00 17.2 C 7.91 g/m*3 17.2 C 14.5 km/h
468 30-05-2014 14:55:00 16.8 C 7.72 g/m*3 16.8 C 11.3 km/h
469 30-05-2014 15:00:00 16.6 C 7.63 g/m*3 16.6 C 9.7 km/h
470 30-05-2014 15:05:00 16.4 C 7.54 g/m*3 16.4 C 17.7 km/h
471 30-05-2014 15:10:00 16.1 C 7.54 g/m*3 16.1 C 8.1 km/h
472 30-05-2014 15:15:00 16 C 7.77 g/m*3 16 C 11.3 km/h
473 30-05-2014 15:20:00 16.4 C 8.23 g/m*3 16.4 C 11.3 km/h
474 30-05-2014 15:25:00 16.7 C 7.96 g/m*3 16.7 C 14.5 km/h
475 30-05-2014 15:30:00 16.7 C 7.96 g/m*3 16.7 C 9.7 km/h
Sensor: Nr:Datum:Temp:Abs-Feuchte:Windchill:Wind:
Aussen-T/F 476 30-05-2014 15:35:00 16.9 C 7.91 g/m*3 16.9 C 11.3 km/h
477 30-05-2014 15:40:00 17.2 C 8.05 g/m*3 17.2 C 8.1 km/h
478 30-05-2014 15:45:00 17.3 C 8.25 g/m*3 17.3 C 14.5 km/h
479 30-05-2014 15:50:00 17.9 C 8.24 g/m*3 17.9 C 14.5 km/h
480 30-05-2014 15:55:00 17.8 C 8.2 g/m*3 17.8 C 8.1 km/h
481 30-05-2014 16:00:00 17.3 C 7.96 g/m*3 17.3 C 12.9 km/h
482 30-05-2014 16:05:00 17 C 8.1 g/m*3 17 C 11.3 km/h
483 30-05-2014 16:10:00 16.8 C 8.01 g/m*3 16.8 C 8.1 km/h
484 30-05-2014 16:15:00 16.6 C 8.05 g/m*3 16.6 C 6.4 km/h
485 30-05-2014 16:20:00 16.5 C 7.72 g/m*3 16.5 C 6.4 km/h
486 30-05-2014 16:25:00 16.3 C 8.19 g/m*3 16.3 C 6.4 km/h
487 30-05-2014 16:30:00 16.6 C 8.76 g/m*3 16.6 C 8.1 km/h
488 30-05-2014 16:35:00 17.3 C 8.4 g/m*3 17.3 C 8.1 km/h
489 30-05-2014 16:40:00 17.9 C 8.24 g/m*3 17.9 C 11.3 km/h
490 30-05-2014 16:45:00 18 C 8.29 g/m*3 18 C 11.3 km/h
491 30-05-2014 16:50:00 17.6 C 8.1 g/m*3 17.6 C 9.7 km/h
492 30-05-2014 16:55:00 17.2 C 7.91 g/m*3 17.2 C 4.8 km/h
493 30-05-2014 17:00:00 16.7 C 7.82 g/m*3 16.7 C 9.7 km/h
494 30-05-2014 17:05:00 16.4 C 7.96 g/m*3 16.4 C 9.7 km/h
495 30-05-2014 17:10:00 16.2 C 7.86 g/m*3 16.2 C 8.1 km/h
496 30-05-2014 17:15:00 16.2 C 8 g/m*3 16.2 C 11.3 km/h
497 30-05-2014 17:20:00 16.1 C 7.95 g/m*3 16.1 C 9.7 km/h
498 30-05-2014 17:25:00 16.1 C 8.36 g/m*3 16.1 C 12.9 km/h
499 30-05-2014 17:30:00 16.1 C 8.09 g/m*3 16.1 C 8.1 km/h
500 30-05-2014 17:35:00 15.9 C 7.99 g/m*3 15.9 C 11.3 km/h
Sensor: Nr:Datum:Temp:Abs-Feuchte:Windchill:Wind:
Aussen-T/F 501 30-05-2014 17:40:00 15.7 C 7.76 g/m*3 15.7 C 12.9 km/h
502 30-05-2014 17:45:00 15.9 C 8.4 g/m*3 15.9 C 12.9 km/h
503 30-05-2014 17:50:00 16.3 C 7.77 g/m*3 16.3 C 12.9 km/h
504 30-05-2014 17:55:00 16.4 C 8.1 g/m*3 16.4 C 14.5 km/h
505 30-05-2014 18:00:00 16.7 C 7.96 g/m*3 16.7 C 11.3 km/h
506 30-05-2014 18:05:00 16.8 C 7.86 g/m*3 16.8 C 11.3 km/h
507 30-05-2014 18:10:00 16.9 C 8.05 g/m*3 16.9 C 9.7 km/h
508 30-05-2014 18:15:00 16.8 C 8.01 g/m*3 16.8 C 11.3 km/h
509 30-05-2014 18:20:00 16.6 C 7.77 g/m*3 16.6 C 12.9 km/h
510 30-05-2014 18:25:00 16.4 C 7.82 g/m*3 16.4 C 8.1 km/h
511 30-05-2014 18:30:00 16.1 C 7.68 g/m*3 16.1 C 4.8 km/h
512 30-05-2014 18:35:00 15.9 C 7.85 g/m*3 15.9 C 8.1 km/h
513 30-05-2014 18:40:00 16 C 8.04 g/m*3 16 C 8.1 km/h
514 30-05-2014 18:45:00 16.3 C 8.05 g/m*3 16.3 C 11.3 km/h
515 30-05-2014 18:50:00 16.7 C 8.24 g/m*3 16.7 C 9.7 km/h
516 30-05-2014 18:55:00 17 C 8.25 g/m*3 17 C 11.3 km/h
517 30-05-2014 19:00:00 16.7 C 7.96 g/m*3 16.7 C 14.5 km/h
518 30-05-2014 19:05:00 16.2 C 7.86 g/m*3 16.2 C 6.4 km/h
519 30-05-2014 19:10:00 15.6 C 7.58 g/m*3 15.6 C 12.9 km/h
520 30-05-2014 19:15:00 15.3 C 7.84 g/m*3 15.3 C 8.1 km/h
521 30-05-2014 19:20:00 15.1 C 7.74 g/m*3 15.1 C 9.7 km/h
522 30-05-2014 19:25:00 15 C 7.82 g/m*3 15 C 9.7 km/h
523 30-05-2014 19:30:00 15.1 C 7.87 g/m*3 15.1 C 6.4 km/h
524 30-05-2014 19:35:00 15.1 C 7.74 g/m*3 15.1 C 8.1 km/h
525 30-05-2014 19:40:00 15 C 7.69 g/m*3 15 C 8.1 km/h
Sensor: Nr:Datum:Temp:Abs-Feuchte:Windchill:Wind:
Aussen-T/F 526 30-05-2014 19:45:00 14.9 C 7.65 g/m*3 14.9 C 9.7 km/h
527 30-05-2014 19:50:00 14.8 C 7.73 g/m*3 14.8 C 8.1 km/h
528 30-05-2014 19:55:00 14.7 C 7.55 g/m*3 14.7 C 9.7 km/h
529 30-05-2014 20:00:00 14.6 C 7.63 g/m*3 14.6 C 3.2 km/h
530 30-05-2014 20:05:00 14.6 C 7.63 g/m*3 14.6 C 6.4 km/h
531 30-05-2014 20:10:00 14.6 C 7.51 g/m*3 14.6 C 3.2 km/h
532 30-05-2014 20:15:00 14.6 C 7.76 g/m*3 14.6 C 1.6 km/h
533 30-05-2014 20:20:00 14.4 C 7.29 g/m*3 14.4 C 3.2 km/h
534 30-05-2014 20:25:00 14.4 C 7.42 g/m*3 14.4 C 0 km/h
535 30-05-2014 20:30:00 14.3 C 7.25 g/m*3 14.3 C 1.6 km/h
536 30-05-2014 20:35:00 14.2 C 8.06 g/m*3 14.2 C 0 km/h
537 30-05-2014 20:40:00 14.1 C 7.4 g/m*3 14.1 C 0 km/h
538 30-05-2014 20:45:00 14 C 7.72 g/m*3 14 C 0 km/h
539 30-05-2014 20:50:00 13.8 C 8.22 g/m*3 13.8 C 0 km/h
540 30-05-2014 20:55:00 13.6 C 8.47 g/m*3 13.6 C 0 km/h
541 30-05-2014 21:00:00 13.2 C 8.5 g/m*3 13.2 C 0 km/h
542 30-05-2014 21:05:00 12.8 C 8.4 g/m*3 12.8 C 0 km/h
543 30-05-2014 21:10:00 12.4 C 8.19 g/m*3 12.4 C 0 km/h
544 30-05-2014 21:15:00 12.1 C 8.15 g/m*3 12.1 C 1.6 km/h
545 30-05-2014 21:20:00 11.7 C 8.05 g/m*3 11.7 C 0 km/h
546 30-05-2014 21:25:00 11.5 C 7.95 g/m*3 11.5 C 0 km/h
547 30-05-2014 21:30:00 11.3 C 7.85 g/m*3 11.3 C 1.6 km/h
548 30-05-2014 21:35:00 11.1 C 7.76 g/m*3 11.1 C 1.6 km/h
549 30-05-2014 21:40:00 10.9 C 7.66 g/m*3 10.9 C 0 km/h
550 30-05-2014 21:45:00 10.7 C 7.66 g/m*3 10.7 C 0 km/h
Sensor: Nr:Datum:Temp:Abs-Feuchte:Windchill:Wind:
Aussen-T/F 551 30-05-2014 21:50:00 10.6 C 7.52 g/m*3 10.6 C 1.6 km/h
552 30-05-2014 21:55:00 10.5 C 7.57 g/m*3 10.5 C 0 km/h
553 30-05-2014 22:00:00 10.4 C 7.52 g/m*3 10.4 C 0 km/h
554 30-05-2014 22:05:00 10.3 C 7.57 g/m*3 10.3 C 1.6 km/h
555 30-05-2014 22:10:00 10.2 C 7.61 g/m*3 10.2 C 0 km/h
556 30-05-2014 22:15:00 10.1 C 7.66 g/m*3 10.1 C 0 km/h
557 30-05-2014 22:20:00 10.1 C 7.66 g/m*3 10.1 C 0 km/h
558 30-05-2014 22:25:00 10 C 7.61 g/m*3 10 C 0 km/h
559 30-05-2014 22:30:00 9.9 C 7.56 g/m*3 9.9 C 0 km/h
560 30-05-2014 22:35:00 9.8 C 7.61 g/m*3 9.8 C 0 km/h
561 30-05-2014 22:40:00 9.7 C 7.56 g/m*3 9.7 C 0 km/h
562 30-05-2014 22:45:00 9.6 C 7.69 g/m*3 9.6 C 0 km/h
563 30-05-2014 22:50:00 9.5 C 7.65 g/m*3 9.5 C 0 km/h
564 30-05-2014 22:55:00 9.4 C 7.6 g/m*3 9.4 C 0 km/h
565 30-05-2014 23:00:00 9.4 C 7.6 g/m*3 9.4 C 0 km/h
566 30-05-2014 23:05:00 9.3 C 7.55 g/m*3 9.3 C 0 km/h
567 30-05-2014 23:10:00 9.2 C 7.5 g/m*3 9.2 C 0 km/h
568 30-05-2014 23:15:00 9.1 C 7.54 g/m*3 9.1 C 0 km/h
569 30-05-2014 23:20:00 8.9 C 7.45 g/m*3 8.9 C 0 km/h
570 30-05-2014 23:25:00 8.8 C 7.4 g/m*3 8.8 C 0 km/h
571 30-05-2014 23:30:00 8.7 C 7.44 g/m*3 8.7 C 0 km/h
572 30-05-2014 23:35:00 8.6 C 7.39 g/m*3 8.6 C 0 km/h
573 30-05-2014 23:40:00 8.5 C 7.34 g/m*3 8.5 C 0 km/h
574 30-05-2014 23:45:00 8.4 C 7.38 g/m*3 8.4 C 0 km/h
575 30-05-2014 23:50:00 8.4 C 7.38 g/m*3 8.4 C 0 km/h
Sensor: Nr:Datum:Temp:Abs-Feuchte:Windchill:Wind:
Aussen-T/F 576 30-05-2014 23:55:00 8.3 C 7.33 g/m*3 8.3 C 0 km/h

Legende:
   Min
   Max


Maximal/Minimal-Werte vom 29.05.2014 - 30.05.2014

Sensor Min Max Avg
Temp
(Aussen-T/F)
8.3 °C
30-05-2014  23:55:00
19.4 °C
29-05-2014  13:35:00
13.34 °C
Abs-Feuchte
(Aussen-T/F)
7.21 g/m*3
30-05-2014  09:35:00
11.78 g/m*3
29-05-2014  12:20:00
9.03 g/m*3
Windchill
(Aussen-T/F)
8.09 C
29-05-2014  06:25:00
19.4 C
29-05-2014  13:35:00
13.29 C

Die Daten stammen von einer Davis Vantage Pro 2 Wetter-Station und werden unter Linux mit der Software wview2wettercgi und aufbereitet. Alle Angaben erfolgen ohne Gewähr für ihre Vollständigkeit oder Richtigkeit.
Kontakt: Rainer Krienke krienke@uni-koblenz.de . Meine Webseiten an der Uni Koblenz oder privat.
Version: $Revision: 0.78 $